Time;durP1;ratioP1;P1;durP2;ratioP2;P2;SDS_P1;SDS_P2;PMS_P1;PMS_P2;Temp;Humidity;BMP_temperature;BMP_pressure;BME280_temperature;BME280_humidity;BME280_pressure;Samples;Min_cycle;Max_cycle;Signal;HPM_P1;HPM_P2
2022/04/12 00:00:23;;;;;;;2.40;0.90;;;11.10;43.90;;;;;;2661152;52;21543;-83
2022/04/12 00:02:50;;;;;;;1.48;0.70;;;11.10;43.90;;;;;;2660145;52;20928;-83
2022/04/12 00:05:16;;;;;;;1.50;0.70;;;11.10;43.90;;;;;;2661813;52;20923;-83
2022/04/12 00:07:55;;;;;;;3.28;1.08;;;11.00;44.00;;;;;;2656917;52;21563;-82
2022/04/12 00:10:21;;;;;;;2.22;0.90;;;11.00;43.90;;;;;;2661416;52;20943;-83
2022/04/12 00:12:48;;;;;;;3.35;1.00;;;11.00;44.00;;;;;;2405084;52;20887;-82
2022/04/12 00:15:14;;;;;;;2.70;1.17;;;11.00;44.10;;;;;;2400942;53;20935;-82
2022/04/12 00:20:26;;;;;;;2.30;1.00;;;10.90;44.20;;;;;;2662581;52;20929;-83
2022/04/12 00:22:53;;;;;;;3.53;1.58;;;10.90;44.00;;;;;;2402392;52;20978;-83
2022/04/12 00:25:22;;;;;;;4.00;1.58;;;10.80;44.00;;;;;;2632400;51;20890;-82
2022/04/12 00:27:49;;;;;;;3.45;1.23;;;10.80;44.10;;;;;;2661886;52;20999;-83
2022/04/12 00:30:15;;;;;;;3.87;1.70;;;10.80;44.20;;;;;;2403844;52;20982;-82
2022/04/12 00:32:41;;;;;;;3.97;1.67;;;10.70;44.10;;;;;;2404069;52;21284;-82
2022/04/12 00:35:08;;;;;;;3.40;1.50;;;10.70;44.10;;;;;;2658170;52;20895;-82
2022/04/12 00:37:35;;;;;;;2.87;1.30;;;10.60;44.20;;;;;;2644331;51;20922;-83
2022/04/12 00:40:02;;;;;;;3.75;1.25;;;10.60;44.20;;;;;;2404184;53;20970;-83
2022/04/12 00:42:28;;;;;;;3.72;1.50;;;10.60;44.30;;;;;;2663550;52;20935;-83
2022/04/12 00:44:54;;;;;;;3.83;1.55;;;10.50;44.30;;;;;;2661939;52;20947;-83
2022/04/12 00:47:20;;;;;;;2.92;1.20;;;10.50;44.30;;;;;;2403885;52;20892;-82
2022/04/12 00:49:47;;;;;;;3.92;1.48;;;10.50;44.30;;;;;;2403833;52;20982;-82
2022/04/12 00:52:13;;;;;;;3.12;1.27;;;10.50;45.00;;;;;;2403539;53;20906;-83
2022/04/12 00:54:39;;;;;;;3.67;1.48;;;10.40;44.30;;;;;;2661652;52;20931;-83
2022/04/12 00:57:06;;;;;;;3.50;1.30;;;10.40;44.40;;;;;;2402837;52;21847;-83
2022/04/12 00:59:32;;;;;;;3.03;1.23;;;10.20;44.30;;;;;;2403524;52;20927;-82
2022/04/12 01:01:58;;;;;;;2.55;0.88;;;10.30;44.40;;;;;;2638599;51;20929;-81
2022/04/12 01:04:25;;;;;;;2.15;0.90;;;10.30;44.40;;;;;;2656088;51;20947;-82
2022/04/12 01:06:51;;;;;;;2.05;0.80;;;10.20;44.40;;;;;;2661606;52;20911;-82
2022/04/12 01:09:18;;;;;;;2.45;1.00;;;10.20;44.50;;;;;;2631582;52;21820;-82
2022/04/12 01:11:48;;;;;;;2.10;0.80;;;10.20;44.50;;;;;;2660888;52;21018;-82
2022/04/12 01:14:15;;;;;;;1.77;0.70;;;10.10;44.40;;;;;;2661419;52;20991;-82
2022/04/12 01:16:41;;;;;;;2.03;0.60;;;10.10;44.40;;;;;;2403583;52;20999;-82
2022/04/12 01:19:08;;;;;;;2.03;0.80;;;10.10;44.50;;;;;;2661603;52;20891;-82
2022/04/12 01:21:54;;;;;;;2.08;0.80;;;10.00;44.50;;;;;;2662094;52;21430;-82
2022/04/12 01:24:20;;;;;;;2.25;0.80;;;10.00;44.80;;;;;;2402680;52;21339;-82
2022/04/12 01:26:46;;;;;;;2.00;0.90;;;10.00;44.60;;;;;;2660987;52;20954;-82
2022/04/12 01:29:13;;;;;;;2.20;0.98;;;9.90;45.60;;;;;;2661542;52;21022;-82
2022/04/12 01:31:39;;;;;;;2.15;0.93;;;9.90;45.70;;;;;;2661973;52;20919;-83
2022/04/12 01:34:06;;;;;;;2.40;0.77;;;9.90;45.70;;;;;;2661292;52;20903;-86
2022/04/12 01:36:32;;;;;;;2.78;1.02;;;9.80;45.70;;;;;;2403069;53;20931;-83
2022/04/12 01:38:59;;;;;;;3.17;1.15;;;9.80;45.80;;;;;;2631365;51;21006;-82
2022/04/12 01:41:25;;;;;;;1.73;0.80;;;9.80;45.90;;;;;;2633299;51;21493;-82
2022/04/12 01:43:52;;;;;;;2.20;0.85;;;9.70;45.90;;;;;;2403029;52;21007;-82
2022/04/12 01:46:18;;;;;;;1.73;0.77;;;9.70;46.00;;;;;;2661318;52;20919;-82
2022/04/12 01:48:47;;;;;;;2.00;0.80;;;9.70;46.00;;;;;;2403186;53;20919;-82
2022/04/12 01:51:13;;;;;;;1.60;0.70;;;9.60;46.00;;;;;;2403677;52;20954;-82
2022/04/12 01:53:39;;;;;;;1.85;0.70;;;9.60;46.00;;;;;;2403967;52;21031;-82
2022/04/12 01:56:06;;;;;;;1.52;0.57;;;9.60;46.10;;;;;;2403711;52;21030;-83
2022/04/12 01:58:33;;;;;;;3.05;1.52;;;9.60;46.10;;;;;;2403834;52;21751;-83
2022/04/12 02:01:00;;;;;;;1.73;0.73;;;9.50;46.10;;;;;;2661288;52;20907;-82
2022/04/12 02:03:26;;;;;;;1.50;0.77;;;9.50;46.10;;;;;;2403435;53;20958;-82
2022/04/12 02:05:54;;;;;;;3.33;1.10;;;9.50;46.20;;;;;;2661370;52;21753;-82
2022/04/12 02:08:22;;;;;;;2.72;1.05;;;9.50;46.20;;;;;;2661780;52;21499;-81
2022/04/12 02:10:48;;;;;;;3.62;1.20;;;9.40;46.20;;;;;;2403112;53;21026;-83
2022/04/12 02:13:16;;;;;;;2.20;0.75;;;9.40;46.20;;;;;;2661158;52;20891;-83
2022/04/12 02:15:43;;;;;;;1.87;0.70;;;9.40;46.30;;;;;;2631913;51;21440;-82
2022/04/12 02:18:10;;;;;;;2.85;1.00;;;9.40;46.40;;;;;;2661446;52;21540;-82
2022/04/12 02:20:36;;;;;;;2.20;0.90;;;9.30;46.40;;;;;;2662616;52;22081;-83
2022/04/12 02:23:02;;;;;;;2.78;0.75;;;9.30;46.50;;;;;;2664563;52;20934;-82
2022/04/12 02:25:29;;;;;;;2.33;0.90;;;9.30;46.50;;;;;;2403244;52;21002;-83
2022/04/12 02:27:55;;;;;;;1.45;0.57;;;9.30;46.50;;;;;;2402315;53;20914;-83
2022/04/12 02:30:21;;;;;;;5.28;1.02;;;9.20;46.50;;;;;;2649582;52;20970;-82
2022/04/12 02:32:47;;;;;;;2.22;0.90;;;9.20;46.50;;;;;;2659121;51;21011;-83
2022/04/12 02:35:14;;;;;;;3.72;1.37;;;9.20;46.60;;;;;;2662244;52;21314;-82
2022/04/12 02:37:40;;;;;;;4.15;1.67;;;9.20;46.60;;;;;;2661777;52;20896;-82
2022/04/12 02:40:07;;;;;;;3.47;1.67;;;9.20;46.60;;;;;;2662016;52;20895;-82
2022/04/12 02:42:33;;;;;;;4.32;2.05;;;9.20;46.60;;;;;;2662109;52;20939;-82
2022/04/12 02:44:59;;;;;;;3.72;1.87;;;9.10;46.60;;;;;;2661513;52;20954;-81
2022/04/12 02:47:28;;;;;;;3.65;1.73;;;9.10;46.60;;;;;;2661148;52;21398;-82
2022/04/12 02:49:54;;;;;;;3.87;1.67;;;9.10;46.60;;;;;;2403630;52;20975;-83
2022/04/12 02:52:21;;;;;;;3.55;1.80;;;9.10;46.70;;;;;;2661567;52;20938;-82
2022/04/12 02:54:47;;;;;;;3.47;1.52;;;9.00;46.70;;;;;;2661806;52;20971;-83
2022/04/12 02:57:15;;;;;;;3.40;1.62;;;9.00;46.80;;;;;;2661515;52;20907;-81
2022/04/12 02:59:41;;;;;;;3.45;1.60;;;9.00;46.80;;;;;;2403042;52;21328;-82
2022/04/12 03:02:08;;;;;;;3.30;1.37;;;8.90;46.80;;;;;;2661516;52;20951;-82
2022/04/12 03:04:36;;;;;;;3.80;1.62;;;8.90;46.90;;;;;;2661921;52;20944;-82
2022/04/12 03:07:03;;;;;;;3.20;1.35;;;8.90;46.90;;;;;;2382851;52;21911;-83
2022/04/12 03:09:32;;;;;;;3.47;1.42;;;8.90;47.10;;;;;;2662081;52;21808;-83
2022/04/12 03:11:59;;;;;;;2.62;1.17;;;8.90;47.20;;;;;;2660382;52;20951;-82
2022/04/12 03:14:25;;;;;;;2.67;1.20;;;8.80;47.10;;;;;;2662157;52;20987;-81
2022/04/12 03:16:52;;;;;;;2.80;1.20;;;8.80;47.00;;;;;;2403155;52;21038;-83
2022/04/12 03:19:18;;;;;;;2.92;1.08;;;8.80;47.10;;;;;;2387103;53;21009;-82
2022/04/12 03:21:45;;;;;;;2.30;1.00;;;8.80;47.20;;;;;;2403391;53;20935;-82
2022/04/12 03:24:11;;;;;;;2.22;1.08;;;8.80;47.20;;;;;;2403092;52;20988;-82
2022/04/12 03:26:37;;;;;;;3.10;1.23;;;8.80;47.20;;;;;;2637744;51;21807;-83
2022/04/12 03:29:04;;;;;;;3.25;1.33;;;8.70;47.20;;;;;;2650180;51;20967;-83
2022/04/12 03:31:31;;;;;;;2.53;1.30;;;8.70;47.30;;;;;;2634651;51;20944;-82
2022/04/12 03:33:57;;;;;;;3.30;1.10;;;8.70;47.40;;;;;;2385919;53;20999;-83
2022/04/12 03:36:23;;;;;;;2.45;1.20;;;8.70;47.40;;;;;;2657224;52;20902;-82
2022/04/12 03:38:50;;;;;;;3.12;1.27;;;8.70;47.40;;;;;;2653086;51;21073;-82
2022/04/12 03:41:22;;;;;;;3.15;1.15;;;8.60;47.40;;;;;;2638997;51;20914;-82
2022/04/12 03:43:48;;;;;;;2.80;1.10;;;8.60;47.50;;;;;;2402381;52;20935;-83
2022/04/12 03:46:15;;;;;;;2.33;1.00;;;8.60;47.50;;;;;;2402114;53;20968;-83
2022/04/12 03:48:41;;;;;;;1.95;0.80;;;8.60;47.60;;;;;;2660221;52;21257;-83
2022/04/12 03:51:08;;;;;;;3.45;0.88;;;8.60;47.60;;;;;;2661396;52;21445;-83
2022/04/12 03:53:36;;;;;;;2.50;0.90;;;8.60;47.70;;;;;;2403055;52;20962;-83
2022/04/12 03:56:07;;;;;;;2.00;0.80;;;8.60;47.70;;;;;;2661001;52;20911;-83
2022/04/12 03:58:37;;;;;;;2.55;1.00;;;8.60;47.80;;;;;;2402030;53;20899;-82
2022/04/12 04:01:04;;;;;;;1.87;0.93;;;8.60;47.90;;;;;;2635575;51;21699;-82
2022/04/12 04:03:31;;;;;;;2.30;1.10;;;8.60;47.80;;;;;;2656275;51;20974;-83
2022/04/12 04:05:57;;;;;;;2.50;1.00;;;8.60;47.80;;;;;;2658758;52;20963;-84
2022/04/12 04:08:23;;;;;;;2.85;0.98;;;8.60;47.80;;;;;;2401641;53;20941;-81
2022/04/12 04:10:50;;;;;;;2.67;1.20;;;8.60;47.90;;;;;;2659274;52;20959;-82
2022/04/12 04:13:19;;;;;;;1.83;0.80;;;8.50;47.80;;;;;;2600280;52;21547;-83
2022/04/12 04:15:46;;;;;;;2.78;1.00;;;8.60;48.00;;;;;;2658696;51;21035;-84
2022/04/12 04:18:13;;;;;;;2.50;1.00;;;8.50;47.90;;;;;;2395517;52;20974;-82
2022/04/12 04:20:39;;;;;;;3.17;1.17;;;8.50;47.90;;;;;;2636108;51;20864;-82
2022/04/12 04:23:06;;;;;;;3.53;1.20;;;8.50;47.90;;;;;;2404449;52;21899;-83
2022/04/12 04:25:32;;;;;;;2.55;1.12;;;8.50;47.90;;;;;;2399986;53;20990;-82
2022/04/12 04:27:58;;;;;;;2.95;1.25;;;8.50;47.90;;;;;;2400886;52;20994;-82
2022/04/12 04:30:24;;;;;;;2.78;1.10;;;8.50;47.90;;;;;;2400762;53;20911;-83
2022/04/12 04:32:51;;;;;;;2.50;1.17;;;8.50;48.00;;;;;;2379459;52;20978;-82
2022/04/12 04:35:17;;;;;;;2.15;0.90;;;8.50;48.00;;;;;;2400612;52;21157;-82
2022/04/12 04:37:44;;;;;;;2.50;0.95;;;8.50;48.00;;;;;;2400274;52;20911;-83
2022/04/12 04:40:14;;;;;;;2.20;1.00;;;8.50;47.90;;;;;;2658771;52;20983;-82
2022/04/12 04:42:40;;;;;;;2.17;0.90;;;8.50;48.20;;;;;;2400679;52;20943;-83
2022/04/12 04:45:08;;;;;;;3.62;1.10;;;8.50;48.10;;;;;;2401012;52;21255;-82
2022/04/12 04:47:34;;;;;;;3.12;1.30;;;8.40;48.20;;;;;;2658382;52;20919;-82
2022/04/12 04:50:01;;;;;;;2.42;0.98;;;8.40;48.20;;;;;;2400779;53;20903;-82
2022/04/12 04:52:27;;;;;;;2.08;1.00;;;8.40;48.20;;;;;;2400996;53;20898;-82
2022/04/12 04:54:53;;;;;;;3.35;1.10;;;8.40;48.30;;;;;;2658865;52;20927;-82
2022/04/12 04:57:20;;;;;;;3.50;1.30;;;8.40;48.30;;;;;;2399936;52;20951;-82
2022/04/12 04:59:46;;;;;;;2.50;1.05;;;8.40;48.40;;;;;;2657418;52;21045;-82
2022/04/12 05:02:13;;;;;;;2.90;1.27;;;8.40;48.40;;;;;;2399308;52;21013;-81
2022/04/12 05:04:39;;;;;;;2.25;1.08;;;8.40;48.40;;;;;;2399971;52;21350;-83
2022/04/12 05:07:06;;;;;;;2.42;0.98;;;8.40;48.50;;;;;;2657756;52;21491;-82
2022/04/12 05:09:32;;;;;;;3.22;1.23;;;8.40;48.60;;;;;;2657776;52;20927;-82
2022/04/12 05:11:59;;;;;;;2.50;1.10;;;8.40;48.60;;;;;;2399622;52;20895;-82
2022/04/12 05:14:25;;;;;;;3.08;1.30;;;8.40;48.90;;;;;;2658440;52;21346;-82
2022/04/12 05:16:51;;;;;;;2.92;1.30;;;8.40;48.60;;;;;;2656496;52;21002;-83
2022/04/12 05:19:18;;;;;;;2.17;1.10;;;8.40;48.70;;;;;;2657809;52;20947;-82
2022/04/12 05:21:44;;;;;;;3.08;1.20;;;8.40;48.80;;;;;;2628086;51;20930;-82
2022/04/12 05:24:10;;;;;;;3.58;1.48;;;8.40;48.90;;;;;;2396401;52;20973;-83
2022/04/12 05:26:37;;;;;;;2.45;1.15;;;8.50;49.00;;;;;;2387012;52;20931;-82
2022/04/12 05:29:03;;;;;;;3.12;1.50;;;8.50;49.10;;;;;;2376732;53;20923;-83
2022/04/12 05:31:29;;;;;;;4.03;1.50;;;8.50;49.10;;;;;;2399710;52;21003;-82
2022/04/12 05:33:58;;;;;;;4.62;2.08;;;8.50;49.10;;;;;;2658029;52;20971;-82
2022/04/12 05:36:25;;;;;;;4.43;2.12;;;8.50;49.20;;;;;;2658497;52;21065;-82
2022/04/12 05:38:51;;;;;;;4.90;2.55;;;8.50;49.20;;;;;;2656551;52;20903;-80
2022/04/12 05:41:17;;;;;;;5.53;2.67;;;8.60;49.40;;;;;;2397555;52;20954;-80
2022/04/12 05:43:43;;;;;;;4.78;2.67;;;8.60;49.40;;;;;;2658500;52;20915;-81
2022/04/12 05:46:10;;;;;;;3.95;2.37;;;8.70;49.60;;;;;;2399388;52;21870;-80
2022/04/12 05:48:36;;;;;;;4.95;2.65;;;8.70;49.60;;;;;;2399113;52;21799;-82
2022/04/12 05:51:02;;;;;;;4.07;2.00;;;8.80;49.70;;;;;;2656775;52;21729;-79
2022/04/12 05:53:29;;;;;;;4.20;2.30;;;8.80;49.90;;;;;;2655788;52;20967;-79
2022/04/12 05:55:55;;;;;;;5.15;2.20;;;8.90;50.10;;;;;;2656262;52;20958;-79
2022/04/12 05:58:21;;;;;;;3.90;2.10;;;9.00;50.20;;;;;;2645536;51;20988;-80
2022/04/12 06:00:48;;;;;;;3.95;2.20;;;9.10;50.40;;;;;;2635467;51;20899;-80
2022/04/12 06:03:14;;;;;;;4.57;2.05;;;9.10;50.50;;;;;;2393664;52;22196;-80
2022/04/12 06:05:41;;;;;;;3.83;2.03;;;9.30;50.70;;;;;;2379776;53;21737;-80
2022/04/12 06:08:08;;;;;;;4.97;2.15;;;9.40;50.80;;;;;;2655678;52;21151;-79
2022/04/12 06:10:34;;;;;;;4.45;2.05;;;9.50;50.90;;;;;;2622052;51;20906;-82
2022/04/12 06:13:00;;;;;;;4.28;2.10;;;9.60;50.90;;;;;;2379753;52;20953;-81
2022/04/12 06:15:27;;;;;;;4.12;2.08;;;9.70;51.00;;;;;;2402989;53;22151;-82
2022/04/12 06:17:53;;;;;;;3.60;1.90;;;9.90;51.20;;;;;;2394453;52;21445;-82
2022/04/12 06:20:20;;;;;;;3.70;1.90;;;10.00;50.30;;;;;;2656398;52;20907;-82
2022/04/12 06:22:46;;;;;;;4.60;2.45;;;10.10;50.40;;;;;;2658250;52;21043;-82
2022/04/12 06:25:14;;;;;;;4.97;2.70;;;10.30;50.60;;;;;;2660106;52;20915;-83
2022/04/12 06:27:42;;;;;;;5.68;2.55;;;10.40;50.60;;;;;;2400812;53;20911;-86
2022/04/12 06:30:18;;;;;;;7.15;3.45;;;10.50;50.60;;;;;;2660867;52;20973;-85
2022/04/12 06:32:45;;;;;;;8.32;4.45;;;10.70;50.90;;;;;;2404067;52;20927;-83
2022/04/12 06:35:12;;;;;;;6.15;3.05;;;10.80;50.70;;;;;;2401330;53;20907;-84
2022/04/12 06:37:39;;;;;;;6.25;3.17;;;11.00;50.90;;;;;;2401104;52;24792;-82
2022/04/12 06:40:06;;;;;;;5.87;2.90;;;11.20;51.00;;;;;;2657689;52;21022;-83
2022/04/12 06:42:33;;;;;;;5.55;3.10;;;11.30;50.90;;;;;;2400592;52;20919;-83
2022/04/12 06:45:01;;;;;;;7.18;3.53;;;11.50;51.00;;;;;;2658610;52;20908;-84
2022/04/12 06:47:28;;;;;;;6.43;3.50;;;11.70;51.20;;;;;;2654573;52;20940;-83
2022/04/12 06:49:55;;;;;;;6.43;3.20;;;11.90;51.30;;;;;;2634832;51;20981;-84
2022/04/12 06:52:22;;;;;;;4.93;2.50;;;12.10;51.70;;;;;;2400948;52;21078;-83
2022/04/12 06:54:49;;;;;;;4.22;1.83;;;12.30;51.90;;;;;;2658917;52;21257;-83
2022/04/12 06:57:15;;;;;;;3.45;1.60;;;12.70;51.90;;;;;;2401564;52;20931;-83
2022/04/12 06:59:41;;;;;;;3.05;1.52;;;12.90;51.80;;;;;;2658957;52;20947;-83
2022/04/12 07:02:08;;;;;;;2.60;1.30;;;13.10;51.60;;;;;;2389493;52;21334;-82
2022/04/12 07:04:34;;;;;;;2.47;1.20;;;13.40;51.50;;;;;;2391254;52;20903;-82
2022/04/12 07:07:01;;;;;;;2.75;1.08;;;13.60;51.10;;;;;;2660130;52;20979;-82
2022/04/12 07:09:28;;;;;;;2.58;1.10;;;13.70;50.60;;;;;;2660633;52;20932;-82
2022/04/12 07:11:55;;;;;;;3.15;1.50;;;13.90;50.50;;;;;;2400052;53;21034;-82
2022/04/12 07:14:22;;;;;;;2.60;1.33;;;14.00;50.40;;;;;;2659198;52;20912;-83
2022/04/12 07:16:48;;;;;;;3.78;1.48;;;14.20;50.40;;;;;;2400365;53;21718;-82
2022/04/12 07:19:14;;;;;;;2.92;1.40;;;14.40;50.40;;;;;;2400063;53;21620;-82
2022/04/12 07:21:41;;;;;;;3.92;1.60;;;14.50;51.00;;;;;;2380060;52;21010;-83
2022/04/12 07:24:07;;;;;;;3.58;1.67;;;14.80;50.70;;;;;;2658019;52;21010;-82
2022/04/12 07:26:34;;;;;;;3.12;1.50;;;14.90;50.80;;;;;;2657781;52;20931;-81
2022/04/12 07:29:00;;;;;;;3.37;1.62;;;15.20;51.20;;;;;;2398432;52;22120;-83
2022/04/12 07:31:27;;;;;;;2.53;1.30;;;15.50;51.50;;;;;;2658063;52;20950;-82
2022/04/12 07:33:53;;;;;;;3.67;1.52;;;15.90;51.80;;;;;;2393654;53;20918;-83
2022/04/12 07:36:19;;;;;;;4.45;1.70;;;16.30;52.00;;;;;;2641433;51;20995;-82
2022/04/12 07:38:48;;;;;;;3.05;1.40;;;16.60;51.70;;;;;;2655820;52;20987;-83
2022/04/12 07:41:15;;;;;;;3.30;1.45;;;16.90;51.30;;;;;;2642879;51;20927;-83
2022/04/12 07:43:42;;;;;;;3.15;1.55;;;17.10;50.50;;;;;;2657936;51;20907;-83
2022/04/12 07:46:09;;;;;;;3.08;1.75;;;17.40;50.00;;;;;;2658597;52;20979;-83
2022/04/12 07:48:46;;;;;;;3.28;1.37;;;17.50;49.30;;;;;;2654413;52;21405;-83
2022/04/12 07:51:12;;;;;;;2.85;1.33;;;17.60;48.80;;;;;;2658350;52;20915;-83
2022/04/12 07:53:39;;;;;;;3.65;1.50;;;17.70;48.40;;;;;;2399753;53;20923;-82
2022/04/12 07:56:05;;;;;;;4.15;1.40;;;17.80;47.90;;;;;;2657668;52;20946;-83
2022/04/12 07:58:32;;;;;;;2.90;1.52;;;17.80;47.60;;;;;;2658245;52;20891;-83
2022/04/12 08:00:59;;;;;;;4.75;1.70;;;17.80;47.30;;;;;;2399102;52;20995;-82
2022/04/12 08:03:26;;;;;;;4.15;2.00;;;17.80;47.30;;;;;;2399938;53;20923;-82
2022/04/12 08:05:52;;;;;;;3.50;1.60;;;17.80;47.10;;;;;;2400030;53;20903;-82
2022/04/12 08:08:18;;;;;;;3.30;1.60;;;17.80;47.10;;;;;;2400203;52;21685;-83
2022/04/12 08:10:45;;;;;;;3.65;1.48;;;17.90;47.10;;;;;;2658046;52;21749;-82
2022/04/12 08:13:11;;;;;;;3.30;1.60;;;17.90;47.10;;;;;;2390150;52;21462;-83
2022/04/12 08:15:37;;;;;;;2.70;1.48;;;18.00;47.20;;;;;;2645218;51;21208;-82
2022/04/12 08:18:06;;;;;;;3.47;1.60;;;18.10;47.60;;;;;;2657906;52;20910;-82
2022/04/12 08:20:33;;;;;;;3.40;1.50;;;18.30;47.90;;;;;;2379538;53;21406;-83
2022/04/12 08:22:59;;;;;;;3.22;1.48;;;18.50;48.10;;;;;;2657818;52;20931;-83
2022/04/12 08:25:25;;;;;;;3.20;1.45;;;18.80;47.90;;;;;;2657674;52;20923;-80
2022/04/12 08:27:52;;;;;;;3.60;1.48;;;18.80;47.50;;;;;;2378610;52;20981;-80
2022/04/12 08:30:18;;;;;;;3.05;1.30;;;19.00;47.30;;;;;;2389329;52;21077;-82
2022/04/12 08:32:44;;;;;;;2.58;1.30;;;19.10;47.10;;;;;;2636256;51;20958;-82
2022/04/12 08:35:11;;;;;;;3.00;1.42;;;19.20;46.70;;;;;;2636150;51;21062;-83
2022/04/12 08:37:37;;;;;;;3.40;1.33;;;19.20;46.30;;;;;;2398983;53;20887;-81
2022/04/12 08:40:04;;;;;;;3.30;1.20;;;19.30;46.20;;;;;;2399058;53;21933;-81
2022/04/12 08:42:31;;;;;;;3.80;1.30;;;19.30;46.00;;;;;;2658174;52;20919;-83
2022/04/12 08:44:57;;;;;;;3.30;1.23;;;19.40;46.20;;;;;;2399120;53;20995;-81
2022/04/12 08:47:23;;;;;;;2.90;1.45;;;19.50;46.00;;;;;;2657079;52;20973;-80
2022/04/12 08:49:50;;;;;;;2.55;1.37;;;19.60;45.80;;;;;;2656950;52;21229;-81
2022/04/12 08:52:16;;;;;;;2.70;1.10;;;19.60;45.60;;;;;;2657172;52;21555;-80
2022/04/12 08:54:44;;;;;;;1.95;0.88;;;19.80;45.70;;;;;;2657821;52;21766;-81
2022/04/12 08:57:10;;;;;;;2.42;1.15;;;19.90;45.60;;;;;;2656951;52;21445;-81
2022/04/12 08:59:37;;;;;;;2.70;1.12;;;20.00;45.70;;;;;;2657916;52;20975;-81
2022/04/12 09:02:07;;;;;;;2.30;1.20;;;20.10;45.70;;;;;;2398029;52;20923;-80
2022/04/12 09:04:33;;;;;;;2.87;1.30;;;20.20;45.40;;;;;;2657332;52;21046;-80
2022/04/12 09:07:00;;;;;;;2.85;1.20;;;20.30;45.30;;;;;;2657566;52;21030;-81
2022/04/12 09:09:29;;;;;;;2.53;1.20;;;20.50;45.10;;;;;;2658100;52;20915;-81
2022/04/12 09:12:08;;;;;;;2.95;1.40;;;20.60;45.00;;;;;;2398666;53;20963;-80
2022/04/12 09:14:47;;;;;;;3.45;1.55;;;20.80;45.00;;;;;;2658034;52;20970;-80
2022/04/12 09:17:19;;;;;;;3.03;1.20;;;20.90;44.90;;;;;;2398593;52;21454;-80
2022/04/12 09:19:51;;;;;;;3.28;1.20;;;21.00;45.20;;;;;;2657123;52;20910;-80
2022/04/12 09:22:22;;;;;;;2.67;1.27;;;21.20;45.30;;;;;;2396067;52;22021;-80
2022/04/12 09:24:56;;;;;;;3.47;1.45;;;21.40;45.30;;;;;;2625537;51;21215;-80
2022/04/12 09:27:27;;;;;;;2.17;1.12;;;21.50;44.70;;;;;;2642860;51;21495;-77
2022/04/12 09:30:05;;;;;;;2.90;1.20;;;21.60;44.30;;;;;;2653103;52;21512;-78
2022/04/12 09:32:37;;;;;;;2.58;1.10;;;21.70;44.20;;;;;;2634860;51;20998;-79
2022/04/12 09:35:03;;;;;;;2.87;1.15;;;21.90;44.60;;;;;;2645586;51;21903;-79
2022/04/12 09:37:34;;;;;;;3.62;1.30;;;22.00;44.50;;;;;;2397947;52;20973;-79
2022/04/12 09:40:13;;;;;;;3.97;1.20;;;22.20;44.30;;;;;;2376762;53;20926;-79
2022/04/12 09:42:54;;;;;;;2.15;0.90;;;22.30;44.20;;;;;;2658031;52;20931;-80
2022/04/12 09:45:24;;;;;;;3.05;1.02;;;22.50;43.90;;;;;;2656921;52;20876;-78
2022/04/12 09:47:54;;;;;;;3.10;0.95;;;22.70;44.00;;;;;;2397375;53;20883;-79
2022/04/12 09:50:34;;;;;;;1.77;0.80;;;22.80;43.70;;;;;;2627305;51;20961;-79
2022/04/12 09:53:06;;;;;;;2.03;0.90;;;23.00;43.70;;;;;;2398785;53;20951;-79
2022/04/12 09:55:43;;;;;;;2.35;0.90;;;23.10;43.70;;;;;;2399641;53;20938;-79
2022/04/12 09:58:12;;;;;;;1.95;0.85;;;23.30;43.00;;;;;;2630742;51;21087;-79
2022/04/12 10:00:41;;;;;;;2.35;0.80;;;23.40;43.30;;;;;;2396799;53;20899;-79
2022/04/12 10:03:12;;;;;;;2.03;0.82;;;23.60;43.00;;;;;;2657830;52;21046;-79
2022/04/12 10:05:39;;;;;;;2.30;0.80;;;23.70;42.50;;;;;;2399829;53;20966;-80
2022/04/12 10:08:06;;;;;;;2.33;0.80;;;23.80;42.00;;;;;;2658444;52;20895;-78
2022/04/12 10:10:32;;;;;;;2.05;0.77;;;23.90;41.90;;;;;;2629209;51;21535;-79
2022/04/12 10:12:59;;;;;;;2.58;1.02;;;24.00;42.00;;;;;;2400318;53;20915;-80
2022/04/12 10:15:26;;;;;;;3.50;0.88;;;24.00;41.70;;;;;;2660897;52;20905;-79
2022/04/12 10:17:53;;;;;;;2.62;0.80;;;24.10;41.50;;;;;;2402078;53;21344;-80
2022/04/12 10:20:21;;;;;;;2.37;1.00;;;24.20;41.50;;;;;;2380916;53;21798;-79
2022/04/12 10:22:48;;;;;;;2.20;1.10;;;24.20;41.20;;;;;;2660401;52;20942;-79
2022/04/12 10:25:21;;;;;;;2.47;0.80;;;24.20;41.20;;;;;;2660433;52;20959;-78
2022/04/12 10:27:57;;;;;;;1.90;0.80;;;24.20;40.80;;;;;;2382503;52;20901;-81
2022/04/12 10:30:26;;;;;;;1.90;0.80;;;24.30;41.10;;;;;;2662944;52;20987;-82
2022/04/12 10:33:05;;;;;;;2.87;1.05;;;24.40;41.00;;;;;;2661254;52;20900;-81
2022/04/12 10:35:57;;;;;;;3.25;0.80;;;24.40;40.40;;;;;;2401997;53;20970;-81
2022/04/12 10:38:27;;;;;;;2.50;1.12;;;24.40;40.10;;;;;;2661491;52;20987;-82
2022/04/12 10:40:57;;;;;;;2.45;1.00;;;24.50;40.60;;;;;;2402569;53;20947;-82
2022/04/12 10:43:33;;;;;;;1.92;0.80;;;24.50;39.60;;;;;;2632154;52;20935;-82
2022/04/12 10:46:04;;;;;;;1.92;0.70;;;24.50;39.10;;;;;;2403329;52;20903;-81
2022/04/12 10:48:31;;;;;;;2.20;0.80;;;24.60;39.30;;;;;;2661055;52;20987;-81
2022/04/12 10:50:59;;;;;;;3.25;0.93;;;24.60;39.40;;;;;;2661892;52;20998;-82
2022/04/12 10:55:23;;;;;;;1.87;0.70;;;24.60;39.50;;;;;;2661597;52;20935;-81
2022/04/12 10:57:50;;;;;;;1.92;0.70;;;24.60;39.20;;;;;;2632030;51;20919;-81
2022/04/12 11:00:20;;;;;;;2.15;0.75;;;24.70;39.70;;;;;;2661185;52;20927;-81
2022/04/12 11:02:55;;;;;;;1.95;0.80;;;24.80;39.30;;;;;;2402136;52;20940;-81
2022/04/12 11:07:28;;;;;;;1.77;0.77;;;24.80;39.20;;;;;;2661984;52;21544;-81
2022/04/12 11:11:52;;;;;;;2.10;0.90;;;24.90;39.10;;;;;;2640761;51;21060;-81
2022/04/12 11:14:28;;;;;;;2.20;1.10;;;25.00;39.40;;;;;;2390154;52;20934;-82
2022/04/12 11:17:02;;;;;;;2.90;1.10;;;25.10;38.80;;;;;;2395109;53;20943;-83
2022/04/12 11:19:28;;;;;;;2.72;1.02;;;25.10;39.30;;;;;;2662096;52;21514;-82
2022/04/12 11:22:01;;;;;;;3.87;1.10;;;25.20;39.00;;;;;;2631793;52;21814;-83
2022/04/12 11:24:27;;;;;;;2.53;1.08;;;25.20;38.70;;;;;;2661889;52;20919;-83
2022/04/12 11:30:25;;;;;;;3.08;1.70;;;25.20;38.80;;;;;;2631186;51;21328;-81
2022/04/12 11:32:55;;;;;;;2.97;1.00;;;25.40;39.00;;;;;;2642240;51;20970;-81
2022/04/12 11:35:24;;;;;;;2.40;1.25;;;25.40;38.50;;;;;;2377717;53;20970;-80
2022/04/12 11:37:51;;;;;;;3.17;1.08;;;25.40;38.20;;;;;;2655274;51;20972;-82
2022/04/12 11:40:20;;;;;;;3.60;1.73;;;25.40;38.40;;;;;;2662244;52;20987;-83
2022/04/12 11:42:46;;;;;;;2.62;1.23;;;25.40;38.40;;;;;;2402447;53;20915;-81
2022/04/12 11:45:13;;;;;;;3.22;1.55;;;25.40;38.40;;;;;;2402580;52;20958;-82
2022/04/12 11:47:44;;;;;;;3.17;1.45;;;25.40;38.30;;;;;;2661724;52;20931;-82
2022/04/12 11:50:15;;;;;;;4.32;1.70;;;25.50;38.40;;;;;;2662254;52;21476;-81
2022/04/12 11:52:42;;;;;;;3.70;1.85;;;25.50;38.50;;;;;;2662040;52;21018;-81
2022/04/12 11:55:09;;;;;;;3.92;1.70;;;25.50;38.60;;;;;;2402510;53;21445;-82
2022/04/12 11:57:37;;;;;;;3.08;1.50;;;25.60;38.50;;;;;;2402665;52;21868;-82
2022/04/12 12:00:04;;;;;;;3.20;1.70;;;25.70;38.60;;;;;;2402841;53;21401;-82
2022/04/12 12:02:31;;;;;;;2.83;1.37;;;25.70;38.70;;;;;;2662202;52;20907;-83
2022/04/12 12:05:02;;;;;;;2.72;1.37;;;25.90;39.20;;;;;;2660254;52;21284;-82
2022/04/12 12:07:29;;;;;;;2.97;1.25;;;26.00;38.60;;;;;;2400371;52;21079;-82
2022/04/12 12:10:07;;;;;;;2.67;1.27;;;26.10;38.50;;;;;;2380813;53;21050;-81
2022/04/12 12:12:46;;;;;;;3.10;1.30;;;26.20;38.00;;;;;;2633253;52;20911;-82
2022/04/12 12:15:18;;;;;;;2.90;1.30;;;26.30;37.70;;;;;;2664089;52;20967;-82
2022/04/12 12:17:46;;;;;;;4.60;1.50;;;26.40;38.00;;;;;;2663950;52;20995;-80
2022/04/12 12:20:13;;;;;;;4.57;1.30;;;26.50;38.20;;;;;;2402724;53;20955;-81
2022/04/12 12:22:42;;;;;;;2.58;1.08;;;26.70;38.20;;;;;;2662903;52;20986;-82
2022/04/12 12:25:09;;;;;;;3.45;1.52;;;26.70;37.90;;;;;;2647802;51;20942;-82
2022/04/12 12:27:37;;;;;;;3.12;1.40;;;26.80;37.70;;;;;;2395087;53;20900;-84
2022/04/12 12:30:08;;;;;;;3.50;1.48;;;26.90;37.30;;;;;;2403429;52;20954;-83
2022/04/12 12:32:39;;;;;;;3.93;1.50;;;27.00;37.20;;;;;;2662168;52;20927;-83
2022/04/12 12:35:09;;;;;;;3.08;1.50;;;27.00;37.10;;;;;;2633875;51;20926;-81
2022/04/12 12:37:36;;;;;;;3.55;1.45;;;27.10;37.00;;;;;;2631651;52;21855;-82
2022/04/12 12:40:11;;;;;;;2.83;1.37;;;27.10;37.00;;;;;;2662340;52;20919;-81
2022/04/12 12:42:37;;;;;;;2.90;1.48;;;27.10;36.90;;;;;;2375672;53;21187;-83
2022/04/12 12:45:18;;;;;;;3.50;1.58;;;27.20;37.60;;;;;;2394578;52;20933;-80
2022/04/12 12:47:45;;;;;;;5.43;1.67;;;27.20;36.50;;;;;;2386006;52;21026;-80
2022/04/12 12:50:12;;;;;;;3.25;1.55;;;27.30;37.00;;;;;;2635833;51;20911;-79
2022/04/12 12:52:40;;;;;;;3.42;1.42;;;27.30;37.00;;;;;;2653110;51;21636;-79
2022/04/12 12:55:12;;;;;;;3.12;1.55;;;27.40;37.00;;;;;;2639866;51;21001;-78
2022/04/12 12:57:42;;;;;;;4.43;1.52;;;27.40;37.10;;;;;;2652144;51;20907;-81
2022/04/12 13:00:10;;;;;;;4.55;2.12;;;27.50;37.20;;;;;;2383999;52;21025;-84
2022/04/12 13:02:37;;;;;;;3.53;1.70;;;27.70;37.10;;;;;;2659732;51;20970;-84
2022/04/12 13:05:05;;;;;;;2.92;1.40;;;27.70;37.00;;;;;;2402990;52;21725;-80